Wetter Infos

Wetter-Informationen für den Flugplatz Hof

Die wichtigsten und aktuellen Wetterdaten für den Flugplatz Hof-Plauen sowie für die Umgebung haben wir hier zusammengestellt.

METARs

EDQM 181150Z 09004KT CAVOK 28/15 Q1016

EDDN 181250Z 26007KT 220V300 CAVOK 32/13 Q1014 NOSIG

EDDP 181250Z 10007KT 070V140 CAVOK 33/15 Q1013 NOSIG

EDDC 181250Z 15011KT 110V210 CAVOK 31/12 Q1015 TEMPO 16015G25KT

Hof Wetter

DWD – Abruf von Luftsportberichten HIER


Aktuelles Niederschlagsradar

Quelle: © Deutscher Wetterdienst
Quelle: Deutscher Wetterdienst